createdAt,value
2023-03-17T00:01:55.972Z,4.56
2023-03-17T00:04:25.170Z,4.49
2023-03-17T00:06:53.079Z,4.54
2023-03-17T00:09:22.327Z,4.42
2023-03-17T00:11:50.363Z,4.50
2023-03-17T00:14:18.899Z,4.49
2023-03-17T00:16:50.029Z,4.40
2023-03-17T00:19:32.367Z,4.39
2023-03-17T00:22:06.109Z,4.36
2023-03-17T00:24:33.650Z,4.41
2023-03-17T00:27:01.228Z,4.31
2023-03-17T00:29:28.250Z,4.34
2023-03-17T00:31:57.657Z,4.22
2023-03-17T00:34:24.671Z,4.26
2023-03-17T00:36:52.008Z,4.21
2023-03-17T00:39:19.076Z,4.21
2023-03-17T00:44:14.493Z,4.19
2023-03-17T00:46:42.135Z,4.16
2023-03-17T00:49:22.195Z,4.10
2023-03-17T00:51:50.695Z,4.13
2023-03-17T00:54:20.725Z,4.02
2023-03-17T00:56:49.655Z,4.05
2023-03-17T00:59:32.054Z,4.00
2023-03-17T01:01:59.774Z,4.03
2023-03-17T01:04:26.767Z,4.02
2023-03-17T01:06:54.324Z,3.93
2023-03-17T01:09:26.301Z,3.96
2023-03-17T01:11:55.130Z,3.87
2023-03-17T01:14:22.721Z,3.89
2023-03-17T01:16:50.607Z,3.78
2023-03-17T01:19:18.085Z,3.78
2023-03-17T01:21:46.471Z,3.83
2023-03-17T01:24:14.560Z,3.69
2023-03-17T01:26:41.652Z,3.72
2023-03-17T01:29:09.099Z,3.74
2023-03-17T01:31:36.418Z,3.73
2023-03-17T01:34:05.793Z,3.72
2023-03-17T01:36:32.807Z,3.70
2023-03-17T01:38:59.847Z,3.66
2023-03-17T01:41:26.868Z,3.59
2023-03-17T01:43:53.949Z,3.54
2023-03-17T01:46:35.403Z,3.64
2023-03-17T01:49:33.162Z,3.52
2023-03-17T01:52:11.816Z,3.49
2023-03-17T01:54:52.493Z,3.49
2023-03-17T01:57:30.370Z,3.51
2023-03-17T02:00:05.449Z,3.54
2023-03-17T02:02:37.812Z,3.47
2023-03-17T02:05:09.855Z,3.43
2023-03-17T02:07:37.636Z,3.47
2023-03-17T02:10:06.929Z,3.44
2023-03-17T02:12:36.025Z,3.42
2023-03-17T02:15:03.498Z,3.50
2023-03-17T02:17:30.585Z,3.43
2023-03-17T02:20:11.760Z,3.41
2023-03-17T02:22:38.754Z,3.39
2023-03-17T02:25:06.551Z,3.39
2023-03-17T02:27:39.583Z,3.35
2023-03-17T02:30:10.064Z,3.32
2023-03-17T02:32:37.869Z,3.25
2023-03-17T02:35:07.292Z,3.28
2023-03-17T02:37:34.765Z,3.26
2023-03-17T02:40:02.973Z,3.23
2023-03-17T02:42:30.017Z,3.22
2023-03-17T02:44:57.535Z,3.20
2023-03-17T02:47:24.617Z,3.18
2023-03-17T02:49:51.980Z,3.17
2023-03-17T02:52:19.061Z,3.16
2023-03-17T02:54:46.234Z,3.11
2023-03-17T02:57:13.243Z,3.08
2023-03-17T02:59:40.425Z,3.12
2023-03-17T03:02:07.446Z,3.12
2023-03-17T03:04:34.864Z,3.08
2023-03-17T03:07:02.126Z,3.03
2023-03-17T03:09:29.830Z,3.06
2023-03-17T03:11:56.931Z,3.02
2023-03-17T03:14:24.455Z,2.98
2023-03-17T03:16:52.288Z,3.09
2023-03-17T03:19:19.295Z,3.02
2023-03-17T03:21:46.334Z,3.03
2023-03-17T03:24:13.532Z,3.05
2023-03-17T03:26:41.374Z,2.93
2023-03-17T03:29:09.148Z,2.93
2023-03-17T03:31:36.129Z,2.94
2023-03-17T03:34:03.190Z,2.92
2023-03-17T03:36:30.422Z,2.94
2023-03-17T03:38:58.236Z,2.95
2023-03-17T03:44:11.016Z,2.92
2023-03-17T03:46:38.059Z,2.86
2023-03-17T03:49:05.095Z,2.89
2023-03-17T03:51:32.123Z,2.75
2023-03-17T03:53:59.253Z,2.74
2023-03-17T04:43:09.114Z,2.79
2023-03-17T04:45:41.175Z,2.74
2023-03-17T04:48:08.245Z,2.61
2023-03-17T04:50:40.933Z,2.50
2023-03-17T04:53:09.200Z,2.54
2023-03-17T05:24:45.465Z,9.49
2023-03-17T05:33:03.546Z,13.08
2023-03-17T05:35:30.709Z,13.80
2023-03-17T05:44:20.428Z,16.56
2023-03-17T05:46:47.615Z,17.44
2023-03-17T06:12:34.398Z,20.27
2023-03-17T06:15:01.414Z,19.94
2023-03-17T06:17:28.752Z,16.54
2023-03-17T06:23:03.466Z,13.73
2023-03-17T06:25:41.112Z,12.88
2023-03-17T06:28:08.215Z,13.91
2023-03-17T06:55:15.250Z,22.41
2023-03-17T06:57:42.281Z,19.09
2023-03-17T07:00:12.607Z,17.27
2023-03-17T07:02:40.134Z,16.68
2023-03-17T07:05:08.306Z,18.74
2023-03-17T07:07:38.831Z,20.76
2023-03-17T07:10:07.145Z,22.35
2023-03-17T07:12:34.326Z,23.68
2023-03-17T07:15:01.638Z,24.53
2023-03-17T07:17:28.973Z,24.84
2023-03-17T07:19:56.110Z,25.34
2023-03-17T07:22:23.367Z,24.49
2023-03-17T07:24:50.359Z,25.03
2023-03-17T07:27:17.454Z,26.01
2023-03-17T07:29:44.532Z,26.25
2023-03-17T07:32:11.963Z,26.27
2023-03-17T07:37:33.648Z,26.76
2023-03-17T07:40:00.724Z,26.36
2023-03-17T07:42:29.011Z,26.65
2023-03-17T08:02:16.987Z,26.28
2023-03-17T08:09:47.846Z,24.74
2023-03-17T08:12:15.078Z,24.25
2023-03-17T08:14:42.129Z,24.01
2023-03-17T08:17:09.184Z,24.31
2023-03-17T08:19:37.438Z,24.37
2023-03-17T08:22:05.090Z,24.33
2023-03-17T08:24:32.703Z,24.44
2023-03-17T08:27:00.974Z,24.16
2023-03-17T08:29:29.064Z,23.50
2023-03-17T08:31:57.344Z,22.27
2023-03-17T08:34:26.396Z,22.25
2023-03-17T08:36:53.479Z,21.50
2023-03-17T08:39:20.591Z,20.90
2023-03-17T08:41:47.787Z,20.26
2023-03-17T08:44:15.122Z,20.59
2023-03-17T08:46:42.545Z,21.11
2023-03-17T08:49:10.548Z,20.80
2023-03-17T08:51:38.805Z,20.88
2023-03-17T08:54:06.952Z,21.03
2023-03-17T08:56:36.992Z,21.77
2023-03-17T09:05:27.227Z,23.39
2023-03-17T09:07:54.325Z,23.43
2023-03-17T09:39:40.493Z,25.27
2023-03-17T09:42:43.393Z,25.35
2023-03-17T09:52:05.546Z,25.74
2023-03-17T09:54:38.202Z,25.73
2023-03-17T10:00:36.072Z,25.77
2023-03-17T10:03:03.568Z,25.68
2023-03-17T10:05:36.399Z,25.82
2023-03-17T10:08:31.711Z,25.54
2023-03-17T10:51:11.702Z,22.31
2023-03-17T10:56:42.361Z,22.11
2023-03-17T11:02:22.909Z,21.76
2023-03-17T11:07:45.332Z,21.33
2023-03-17T11:10:25.165Z,21.03
2023-03-17T11:13:02.561Z,20.97
2023-03-17T11:15:37.684Z,21.38
2023-03-17T11:18:28.160Z,20.95
2023-03-17T11:21:32.136Z,20.75
2023-03-17T11:24:33.284Z,20.67
2023-03-17T11:27:06.896Z,20.45
2023-03-17T11:29:52.553Z,20.29
2023-03-17T12:00:34.803Z,18.44
2023-03-17T12:03:27.771Z,18.68
2023-03-17T12:09:18.600Z,18.67
2023-03-17T12:11:46.732Z,18.36
2023-03-17T12:14:19.351Z,18.22
2023-03-17T12:33:04.817Z,17.04
2023-03-17T12:35:38.718Z,16.95
2023-03-17T12:38:17.906Z,16.97
2023-03-17T12:41:01.557Z,15.58
2023-03-17T12:43:53.808Z,15.85
2023-03-17T12:46:48.933Z,16.16
2023-03-17T12:49:49.900Z,16.39
2023-03-17T12:52:32.006Z,16.16
2023-03-17T12:55:03.395Z,16.37
2023-03-17T12:57:45.902Z,16.08
2023-03-17T13:00:32.045Z,15.98
2023-03-17T13:03:28.328Z,15.94
2023-03-17T13:06:16.556Z,15.76
2023-03-17T13:08:43.700Z,15.74
2023-03-17T13:11:47.723Z,15.63
2023-03-17T13:14:42.777Z,15.49
2023-03-17T14:10:33.572Z,14.54
2023-03-17T14:25:25.940Z,14.30
2023-03-17T14:27:57.104Z,14.18
2023-03-17T14:45:50.953Z,13.83
2023-03-17T15:13:11.832Z,13.30
2023-03-17T15:15:41.648Z,13.22
2023-03-17T15:51:28.750Z,12.23
2023-03-17T15:53:55.783Z,12.27
2023-03-17T15:56:22.834Z,12.28
2023-03-17T15:58:52.305Z,12.21
2023-03-17T16:07:17.261Z,11.91
2023-03-17T16:09:45.516Z,11.74
2023-03-17T16:15:23.247Z,11.51
2023-03-17T16:18:31.022Z,11.59
2023-03-17T16:21:30.280Z,11.55
2023-03-17T16:24:29.970Z,11.51
2023-03-17T16:27:29.027Z,11.43
2023-03-17T16:29:56.059Z,11.48
2023-03-17T16:32:23.132Z,11.41
2023-03-17T16:34:54.379Z,11.35
2023-03-17T16:37:21.446Z,11.22
2023-03-17T17:00:33.894Z,10.96
2023-03-17T17:03:01.080Z,10.94
2023-03-17T17:11:21.479Z,10.69
2023-03-17T17:13:49.645Z,10.71
2023-03-17T17:16:30.449Z,10.67
2023-03-17T17:18:59.047Z,10.68
2023-03-17T17:21:27.346Z,10.64
2023-03-17T17:23:54.875Z,10.54
2023-03-17T17:26:22.688Z,10.06
2023-03-17T17:28:50.153Z,10.21
2023-03-17T17:31:17.240Z,10.17
2023-03-17T17:33:44.398Z,10.17
2023-03-17T17:36:16.937Z,10.05
2023-03-17T17:38:44.731Z,9.91
2023-03-17T17:41:13.451Z,9.95
2023-03-17T17:43:41.221Z,9.95
2023-03-17T17:46:15.778Z,9.77
2023-03-17T17:48:43.097Z,9.58
2023-03-17T17:51:10.354Z,9.46
2023-03-17T17:53:37.394Z,9.51
2023-03-17T17:56:04.911Z,9.60
2023-03-17T17:58:31.930Z,9.64
2023-03-17T18:16:04.884Z,9.25
2023-03-17T18:18:32.657Z,9.27
2023-03-17T18:38:33.880Z,9.10
2023-03-17T18:43:56.465Z,9.19
2023-03-17T19:19:04.368Z,8.80
2023-03-17T19:21:32.484Z,8.85
2023-03-17T19:47:21.898Z,8.65
2023-03-17T19:52:43.695Z,8.52
2023-03-17T19:55:17.465Z,8.48
2023-03-17T19:57:44.460Z,8.17
2023-03-17T20:21:37.884Z,8.26
2023-03-17T20:32:54.341Z,8.20
2023-03-17T20:35:21.470Z,8.18
2023-03-17T21:01:12.810Z,7.79
2023-03-17T21:18:17.655Z,7.44
2023-03-17T21:25:47.102Z,7.47
2023-03-17T21:30:22.235Z,7.43
2023-03-17T21:37:53.498Z,7.40
2023-03-17T21:40:21.259Z,7.31
2023-03-17T21:42:49.364Z,7.35
2023-03-17T22:02:46.808Z,7.27
2023-03-17T22:36:01.142Z,6.95
2023-03-17T22:39:00.028Z,6.98
2023-03-17T22:41:29.760Z,6.89
2023-03-17T22:55:36.654Z,6.91
2023-03-17T22:58:04.211Z,6.88
2023-03-17T23:50:42.498Z,6.58
